Latest Weather Observations for Nerriga

IDN60801

Issued at 9:02 am EST Friday 3 July 2015 (issued every 30 minutes, with the page automatically refreshed every 10 minutes)

About weather observations | Map of weather stations | Latest weather observations for NSW | Other Formats
Station Details ID: 069128 Name: NERRIGA AWS Lat: -35.11 Lon: 150.08 Height: 622.0 m
Data from the previous 72 hours. | See also: Recent months at Nerriga
Date/Time
EST
Temp
°C
App
Temp
°C
Dew
Point
Rel
Hum
%
Delta-T
°C
Wind Press
QNH
hPa
Press
MSL
hPa
Rain
since 9 am
mm
Dir
 
Spd
km/h
Gust
km/h
Spd
kts
Gust
kts
03/09:00am 0.1 -2.1 -1.8 87 0.7 CALM 0 0 0 0 1026.5 1027.7 0.2
03/08:30am -1.4 -4.1 -2.4 93 0.3 SW 2 4 1 2 1026.3 1027.5 0.2
03/08:00am -2.2 -4.9 -2.6 97 0.0 SW 2 4 1 2 1026.2 1027.4 0.2
03/07:30am -5.3 -9.2 -6.1 94 0.0 SW 6 7 3 4 1025.8 1027.0 0.2
03/07:00am -5.2 -7.9 -6.0 94 0.0 CALM 0 0 0 0 1025.5 1026.6 0.2
03/06:30am -4.9 -7.9 -5.6 95 0.0 SW 2 2 1 1 1025.2 1026.4 0.2
03/06:00am -5.2 -8.3 -6.2 93 0.1 SW 2 4 1 2 1024.7 1025.9 0.2
03/05:30am -3.9 -7.2 -4.4 96 0.0 SW 4 6 2 3 1024.4 1025.6 0.2
03/05:00am -4.8 -7.5 -5.8 93 0.1 CALM 0 0 0 0 1024.3 1025.5 0.2
03/04:30am -4.2 -6.8 -5.0 94 0.1 CALM 0 2 0 1 1024.2 1025.4 0.2
03/04:00am -4.4 -7.8 -5.4 93 0.1 SW 4 7 2 4 1024.1 1025.2 0.2
03/03:30am -3.6 -7.5 -4.3 95 0.1 SW 7 9 4 5 1023.8 1024.9 0.2
03/03:00am -3.9 -7.2 -4.7 94 0.1 SW 4 6 2 3 1024.0 1025.1 0.2
03/02:30am -3.0 -6.6 -4.0 93 0.2 SW 6 7 3 4 1023.9 1025.0 0.2
03/02:00am -4.1 -7.2 -5.9 87 0.4 SW 2 2 1 1 1023.8 1024.9 0.2
03/01:30am -3.1 -6.0 -4.6 89 0.4 SW 2 4 1 2 1024.0 1025.1 0.2
03/01:00am -2.1 -5.4 -4.3 85 0.6 SW 4 7 2 4 1024.1 1025.2 0.2
03/12:30am -1.6 -5.1 -3.2 89 0.5 SW 6 7 3 4 1023.9 1025.0 0.2
03/12:00am -2.3 -6.0 -4.2 87 0.5 SW 6 7 3 4 1024.3 1025.5 0.2
 
Date/Time
EST
Temp
°C
App
Temp
°C
Dew
Point
Rel
Hum
%
Delta-T
°C
Wind Press
QNH
hPa
Press
MSL
hPa
Rain
since 9 am
mm
Dir
 
Spd
km/h
Gust
km/h
Spd
kts
Gust
kts
02/11:30pm -1.8 -5.5 -4.1 84 0.7 SW 6 7 3 4 1024.5 1025.7 0.2
02/11:00pm -1.3 -5.1 -3.8 83 0.8 SW 7 9 4 5 1024.6 1025.8 0.2
02/10:30pm 0.0 -3.5 -3.0 80 1.0 SW 6 6 3 3 1024.4 1025.6 0.2
02/10:00pm 0.6 -2.9 -2.6 79 1.2 SW 6 7 3 4 1023.9 1025.0 0.2
02/09:30pm 0.1 -2.6 -2.8 81 1.0 SW 2 6 1 3 1023.5 1024.7 0.2
02/09:00pm 1.1 -1.9 -2.0 80 1.2 SW 4 7 2 4 1023.3 1024.5 0.2
02/08:30pm 2.0 -0.6 -2.0 75 1.5 SW 2 6 1 3 1023.0 1024.2 0.2
02/08:00pm 2.3 -0.4 -2.4 71 1.7 SW 2 4 1 2 1022.5 1023.6 0.2
02/07:30pm 3.1 -0.9 -2.2 68 1.9 SW 9 15 5 8 1022.2 1023.3 0.2
02/07:00pm 4.0 -0.8 -2.2 64 2.3 SW 13 19 7 10 1021.5 1022.7 0.2
02/06:30pm 4.9 -1.2 -2.2 60 2.7 SW 20 35 11 19 1021.0 1022.1 0.2
02/06:00pm 5.5 0.0 -1.9 59 2.8 SW 17 26 9 14 1020.2 1021.4 0.2
02/05:30pm 5.3 -0.1 -1.4 62 2.6 SW 17 30 9 16 1019.4 1020.5 0.2
02/05:00pm 5.7 -1.2 0.3 68 2.2 SW 26 41 14 22 1018.9 1020.0 0.2
02/04:30pm 7.2 1.0 1.9 69 2.3 WNW 24 35 13 19 1017.8 1018.9 0.2
02/04:00pm 7.7 1.5 2.4 69 2.3 WNW 24 39 13 21 1017.4 1018.4 0.2
02/03:41pm 7.7 0.4 2.6 70 2.2 W 30 50 16 27 1017.3 1018.3 0.2
02/03:30pm 7.8 0.1 2.5 69 2.3 W 32 44 17 24 1017.2 1018.2 0.2
02/03:00pm 7.9 1.1 3.0 71 2.1 WNW 28 50 15 27 1016.6 1017.7 0.2
02/02:54pm 7.8 1.0 3.1 72 2.1 WNW 28 50 15 27 1016.3 1017.4 0.2
02/02:30pm 7.0 0.6 3.4 78 1.6 WNW 26 43 14 23 1016.4 1017.5 0.2
02/02:12pm 6.7 -0.1 3.3 79 1.5 WNW 28 52 15 28 1016.6 1017.7 0.2
02/02:00pm 6.4 0.8 3.6 82 1.2 WNW 22 33 12 18 1016.5 1017.6 0.2
02/01:30pm 6.6 0.4 4.4 86 1.0 WNW 26 33 14 18 1017.0 1018.0 0.2
02/01:00pm 7.2 0.9 4.0 80 1.4 WNW 26 39 14 21 1017.3 1018.3 0.0
02/12:30pm 9.0 3.1 3.8 70 2.4 WNW 24 35 13 19 1017.8 1018.9 0.0
02/12:00pm 8.7 2.4 3.5 70 2.3 NW 26 41 14 22 1018.2 1019.3 0.0
02/11:30am 9.0 2.9 3.0 66 2.7 WNW 24 33 13 18 1018.8 1019.9 0.0
02/11:00am 8.7 1.6 3.3 69 2.4 WNW 30 43 16 23 1019.1 1020.2 0.0
02/10:30am 8.4 3.3 3.1 69 2.3 WNW 19 26 10 14 1019.4 1020.5 0.0
02/10:00am 7.2 3.2 2.7 73 1.9 WNW 13 20 7 11 1019.9 1021.0 0.0
02/09:30am 6.1 2.5 2.7 79 1.5 WNW 11 15 6 8 1019.8 1020.9 0.0
02/09:00am 4.4 -0.1 1.9 84 1.0 WNW 15 22 8 12 1019.6 1020.7 0.0
02/08:30am 2.4 -0.6 1.1 91 0.5 NW 6 11 3 6 1019.5 1020.6 0.0
02/08:00am 0.5 -2.3 -0.1 96 0.2 NW 4 6 2 3 1019.5 1020.6 0.0
02/07:30am -0.4 -4.3 -1.4 93 0.3 W 9 17 5 9 1019.6 1020.7 0.0
02/07:00am 0.7 -2.1 -0.3 93 0.4 W 4 7 2 4 1019.9 1021.0 0.0
02/06:30am 0.4 -1.7 -0.7 92 0.4 CALM 0 6 0 3 1019.7 1020.8 0.0
02/06:00am 0.6 -2.6 -0.3 94 0.3 W 6 11 3 6 1019.6 1020.7 0.0
02/05:30am -0.1 -2.9 -0.7 96 0.2 W 4 6 2 3 1019.5 1020.6 0.0
02/05:00am 0.3 -2.5 -0.5 94 0.3 W 4 6 2 3 1019.5 1020.6 0.0
02/04:30am 0.5 -1.5 -0.4 94 0.3 CALM 0 4 0 2 1019.9 1021.0 0.0
02/04:00am 0.3 -1.8 -1.0 91 0.5 CALM 0 2 0 1 1019.7 1020.8 0.0
02/03:30am 0.9 -1.9 -0.1 93 0.4 W 4 6 2 3 1020.0 1021.1 0.0
02/03:00am 0.8 -2.4 -0.3 92 0.4 W 6 9 3 5 1020.5 1021.6 0.0
02/02:30am 1.2 -1.9 0.0 92 0.5 W 6 7 3 4 1020.5 1021.6 0.0
02/02:00am 1.2 -2.1 0.0 92 0.5 W 7 13 4 7 1020.7 1021.8 0.0
02/01:30am 1.2 -1.1 0.3 94 0.3 NW 2 4 1 2 1020.8 1021.9 0.0
02/01:00am 1.3 -2.0 0.3 93 0.4 NW 7 9 4 5 1020.9 1022.0 0.0
02/12:30am 1.4 -2.2 0.7 95 0.3 NW 9 13 5 7 1021.4 1022.5 0.0
02/12:00am 0.8 -2.5 -0.1 94 0.3 NNW 7 9 4 5 1021.5 1022.7 0.0
 
Date/Time
EST
Temp
°C
App
Temp
°C
Dew
Point
Rel
Hum
%
Delta-T
°C
Wind Press
QNH
hPa
Press
MSL
hPa
Rain
since 9 am
mm
Dir
 
Spd
km/h
Gust
km/h
Spd
kts
Gust
kts
01/11:30pm 1.5 -1.8 0.2 91 0.5 NNW 7 9 4 5 1021.6 1022.8 0.0
01/11:00pm 1.4 -2.2 0.4 93 0.4 NNW 9 11 5 6 1021.8 1023.0 0.0
01/10:30pm 2.0 -1.2 0.5 90 0.6 NW 7 9 4 5 1022.2 1023.3 0.0
01/10:00pm 2.3 -0.9 0.8 90 0.6 NW 7 9 4 5 1022.3 1023.4 0.0
01/09:30pm 2.3 -1.3 0.8 90 0.6 NW 9 11 5 6 1022.5 1023.6 0.0
01/09:00pm 2.1 -1.5 0.5 89 0.6 NW 9 15 5 8 1022.6 1023.7 0.0
01/08:30pm 2.4 -1.7 0.1 85 0.9 NNW 11 15 6 8 1022.7 1023.8 0.0
01/08:00pm 3.3 -0.3 0.7 83 1.0 NW 9 17 5 9 1023.1 1024.3 0.0
01/07:30pm 3.5 0.4 1.2 85 0.9 NW 7 11 4 6 1022.9 1024.1 0.0
01/07:00pm 3.1 0.5 0.7 84 0.9 NW 4 6 2 3 1022.8 1024.0 0.0
01/06:30pm 4.6 1.2 1.8 82 1.2 NW 9 13 5 7 1022.6 1023.7 0.0
01/06:00pm 5.0 1.2 1.8 80 1.3 NW 11 15 6 8 1022.7 1023.8 0.0
01/05:30pm 5.5 1.8 2.3 80 1.4 NW 11 15 6 8 1022.6 1023.7 0.0
01/05:00pm 6.7 2.3 2.6 75 1.8 NW 15 19 8 10 1022.3 1023.4 0.0
01/04:30pm 8.5 5.0 3.4 70 2.3 NW 11 17 6 9 1022.2 1023.3 0.0
01/04:00pm 9.9 5.9 2.7 61 3.2 NW 13 17 7 9 1022.2 1023.3 0.0
01/03:30pm 10.7 7.0 2.5 57 3.7 WNW 11 15 6 8 1022.2 1023.3 0.0
01/03:00pm 10.8 7.1 2.4 56 3.7 NW 11 19 6 10 1022.4 1023.5 0.0
01/02:30pm 9.3 5.9 1.9 60 3.2 NW 9 13 5 7 1022.7 1023.8 0.0
01/02:00pm 9.8 5.7 2.4 60 3.2 NNW 13 19 7 10 1022.9 1024.1 0.0
01/01:30pm 9.4 5.8 2.7 63 3.0 NNW 11 15 6 8 1023.2 1024.4 0.0
01/01:00pm 9.9 7.3 4.1 67 2.6 NNW 7 11 4 6 1023.9 1025.0 0.0
01/12:30pm 10.2 7.7 4.8 69 2.5 W 7 11 4 6 1024.2 1025.4 0.0
01/12:00pm 8.8 6.3 3.8 71 2.2 W 6 9 3 5 1024.9 1026.1 0.0
01/11:30am 7.5 5.0 3.6 76 1.7 W 6 9 3 5 1025.3 1026.5 0.0
01/11:00am 6.3 3.6 2.9 79 1.5 W 6 7 3 4 1025.9 1027.1 0.0
01/10:30am 4.6 1.6 2.0 83 1.1 W 7 11 4 6 1026.4 1027.6 0.0
01/10:00am 4.1 1.2 2.5 89 0.7 W 7 9 4 5 1026.5 1027.7 0.0
01/09:30am 2.2 0.4 1.0 92 0.5 CALM 0 0 0 0 1026.4 1027.3 0.0
01/09:00am 0.7 -1.3 -0.2 94 0.3 CALM 0 0 0 0 1026.5 1027.5 0.2
01/08:30am 0.3 -1.7 0.0 98 0.1 CALM 0 0 0 0 1026.3 1027.2 0.2
01/08:00am -2.0 -4.3 -2.4 97 0.0 CALM 0 0 0 0 1026.2 1027.1 0.0
01/07:30am -1.9 -4.2 -2.2 98 0.0 CALM 0 0 0 0 1025.9 1026.8 0.0
01/07:00am -1.9 -4.2 -2.2 98 0.0 CALM 0 0 0 0 1025.7 1026.6 0.0
01/06:30am -2.4 -4.8 -2.9 96 0.1 CALM 0 0 0 0 1025.5 1026.4 0.0
01/06:00am -1.6 -3.9 -2.2 96 0.1 CALM 0 0 0 0 1025.0 1025.9 0.0
01/05:30am -0.9 -3.1 -1.3 97 0.1 CALM 0 2 0 1 1025.0 1025.9 0.0
01/05:00am -0.3 -3.2 -1.0 95 0.2 W 4 4 2 2 1025.0 1025.9 0.0
01/04:30am 0.2 -3.0 -0.6 94 0.3 W 6 7 3 4 1024.9 1025.8 0.0
01/04:00am 0.4 -2.3 0.0 97 0.1 W 4 6 2 3 1025.0 1025.9 0.0
01/03:30am -0.3 -2.4 -0.9 96 0.2 CALM 0 0 0 0 1025.1 1026.1 0.0
01/03:00am 0.4 -2.4 -0.2 96 0.2 W 4 7 2 4 1025.2 1026.2 0.0
01/02:30am 0.9 -1.8 0.3 96 0.2 W 4 6 2 3 1025.3 1026.3 0.0
01/02:00am 1.3 -1.7 0.6 95 0.3 W 6 7 3 4 1025.7 1026.6 0.0
01/01:30am 1.8 -1.2 0.8 93 0.4 W 6 9 3 5 1026.0 1026.9 0.0
01/01:00am 1.8 -1.8 0.6 92 0.5 W 9 17 5 9 1026.1 1027.0 0.0
01/12:30am 2.1 -1.5 0.9 92 0.5 WNW 9 13 5 7 1026.1 1027.0 0.0
01/12:00am 2.5 -0.4 1.3 92 0.5 WNW 6 7 3 4 1026.2 1027.1 0.0
 
Date/Time
EST
Temp
°C
App
Temp
°C
Dew
Point
Rel
Hum
%
Delta-T
°C
Wind Press
QNH
hPa
Press
MSL
hPa
Rain
since 9 am
mm
Dir
 
Spd
km/h
Gust
km/h
Spd
kts
Gust
kts
30/11:30pm 2.9 0.5 2.0 94 0.4 WNW 4 9 2 5 1026.2 1027.1 0.0
30/11:00pm 3.6 1.6 2.4 92 0.5 WNW 2 7 1 4 1026.1 1027.0 0.0
30/10:30pm 4.1 0.4 2.3 88 0.7 WNW 11 17 6 9 1026.2 1027.1 0.0
30/10:00pm 4.5 1.3 3.0 90 0.6 NW 9 13 5 7 1026.3 1027.2 0.0
30/09:30pm 5.0 0.6 2.9 86 0.9 NW 15 19 8 10 1026.4 1027.3 0.0
30/09:00pm 5.7 1.4 3.4 85 1.0 WNW 15 19 8 10 1026.4 1027.3 0.0
30/08:30pm 6.1 1.9 3.8 85 1.0 NW 15 19 8 10 1026.6 1027.6 0.0
30/08:00pm 6.5 3.6 4.7 88 0.8 NNW 9 13 5 7 1026.6 1027.6 0.0
30/07:30pm 6.6 4.1 4.8 88 0.8 NNW 7 9 4 5 1026.5 1027.5 0.0
30/07:00pm 6.6 3.7 4.8 88 0.8 NNW 9 13 5 7 1026.2 1027.1 0.0
30/06:30pm 7.1 4.2 4.9 86 1.0 NW 9 17 5 9 1026.1 1027.0 0.0
30/06:00pm 7.1 4.3 5.1 87 0.9 NW 9 13 5 7 1026.0 1026.9 0.0
30/05:30pm 7.1 3.9 5.1 87 0.9 NNW 11 15 6 8 1025.7 1026.6 0.0
30/05:00pm 7.4 4.2 5.2 86 1.0 NW 11 15 6 8 1025.6 1026.5 0.0
30/04:30pm 7.8 3.9 5.4 85 1.1 NW 15 20 8 11 1025.6 1026.5 0.0
30/04:00pm 8.3 3.5 5.8 84 1.2 NW 20 28 11 15 1025.6 1026.5 0.0
30/03:30pm 8.3 5.0 6.4 88 0.9 NW 13 17 7 9 1025.6 1026.5 0.0
30/03:00pm 8.8 5.1 6.4 85 1.1 NW 15 20 8 11 1025.3 1026.3 0.0
30/02:30pm 9.3 4.6 6.0 80 1.6 NW 20 30 11 16 1025.3 1026.3 0.0
30/02:00pm 9.7 5.2 5.9 77 1.8 NW 19 26 10 14 1025.2 1026.2 0.0
30/01:30pm 9.6 6.4 6.9 83 1.3 NNW 13 19 7 10 1025.5 1026.4 0.0
30/01:00pm 7.8 4.9 6.6 92 0.6 NNW 11 15 6 8 1026.0 1026.9 0.0
30/12:30pm 7.2 5.2 6.3 94 0.4 NNW 6 9 3 5 1026.5 1027.5 0.0
30/12:00pm 6.8 4.6 6.1 95 0.3 NNW 7 9 4 5 1027.2 1028.1 0.0
30/11:30am 6.2 4.1 5.6 96 0.3 NNW 6 7 3 4 1027.5 1028.4 0.0
30/11:00am 5.9 4.1 5.6 98 0.1 NNW 4 6 2 3 1028.1 1029.1 0.0
30/10:30am 5.7 4.7 5.6 99 0.0 CALM 0 2 0 1 1028.4 1029.4 0.0
30/10:00am 4.7 2.4 4.7 100 0.0 NNW 6 7 3 4 1028.4 1029.4 0.0
30/09:30am 4.6 3.0 4.6 100 0.0 NNW 2 6 1 3 1028.2 1029.2 0.0

Other Formats:

Comma delimited format used in spreadsheet applications
http://www.bom.gov.au/fwo/IDN60801/IDN60801.94943.axf

JavaScript Object Notation format (JSON) in row-major order
http://www.bom.gov.au/fwo/IDN60801/IDN60801.94943.json